Antonia, Missouri
Current Conditions -  °F | °C
As of 2:53 PM on Monday 22 Dec 2014 (Local Time) from KCPS Reporting Station
Light Rain Light Rain  
Wind Chill:   Ceiling: 900
Heat Index:   Visibility: 10mi
Dew Point:   Wind: 10mph
Humidity: 93%   Direction: 150°SSE
Pressure: 29.56"   Gusts: NA
Location:  38.3874°N, 90.4319°W
Report Text: KCPS 222053Z 15009KT 10SM -RA BKN009 OVC013 09/08 A2956 RMK AO2 CIG 006V011 SLP012 P0005 60011 T00940083 56033
Loading
Personal Weather Stations






























Interactive Weather Map New forecast layout! Learn more

10-Day Weather Forecast

Advertisements
Track Severe Weather on mobile